sensor_id;sensor_type;location;lat;lon;timestamp;P1;durP1;ratioP1;P2;durP2;ratioP2
77798;SDS011;66989;50.426;15.352;2023-02-03T00:00:00;1.27;;;0.75;;
77798;SDS011;66989;50.426;15.352;2023-02-03T00:02:27;3.58;;;1.67;;
77798;SDS011;66989;50.426;15.352;2023-02-03T00:04:53;1.60;;;0.40;;
77798;SDS011;66989;50.426;15.352;2023-02-03T00:07:18;1.80;;;0.60;;
77798;SDS011;66989;50.426;15.352;2023-02-03T00:09:44;4.32;;;2.03;;
77798;SDS011;66989;50.426;15.352;2023-02-03T00:12:09;3.47;;;0.60;;
77798;SDS011;66989;50.426;15.352;2023-02-03T00:14:34;3.33;;;1.88;;
77798;SDS011;66989;50.426;15.352;2023-02-03T00:17:01;3.85;;;1.23;;
77798;SDS011;66989;50.426;15.352;2023-02-03T00:19:27;3.22;;;1.40;;
77798;SDS011;66989;50.426;15.352;2023-02-03T00:21:52;4.95;;;1.48;;
77798;SDS011;66989;50.426;15.352;2023-02-03T00:24:18;5.00;;;1.30;;
77798;SDS011;66989;50.426;15.352;2023-02-03T00:26:45;5.10;;;1.58;;
77798;SDS011;66989;50.426;15.352;2023-02-03T00:29:10;3.70;;;1.00;;
77798;SDS011;66989;50.426;15.352;2023-02-03T00:31:35;7.10;;;3.78;;
77798;SDS011;66989;50.426;15.352;2023-02-03T00:34:01;10.52;;;3.63;;
77798;SDS011;66989;50.426;15.352;2023-02-03T00:36:26;14.52;;;7.22;;
77798;SDS011;66989;50.426;15.352;2023-02-03T00:38:52;10.73;;;6.07;;
77798;SDS011;66989;50.426;15.352;2023-02-03T00:41:18;13.07;;;5.68;;
77798;SDS011;66989;50.426;15.352;2023-02-03T00:43:45;8.48;;;2.85;;
77798;SDS011;66989;50.426;15.352;2023-02-03T00:46:11;6.85;;;2.65;;
77798;SDS011;66989;50.426;15.352;2023-02-03T00:48:36;7.03;;;2.83;;
77798;SDS011;66989;50.426;15.352;2023-02-03T00:51:02;4.65;;;1.85;;
77798;SDS011;66989;50.426;15.352;2023-02-03T00:53:27;11.73;;;4.75;;
77798;SDS011;66989;50.426;15.352;2023-02-03T00:55:52;6.28;;;2.88;;
77798;SDS011;66989;50.426;15.352;2023-02-03T00:58:18;11.90;;;3.77;;
77798;SDS011;66989;50.426;15.352;2023-02-03T01:00:43;8.88;;;3.80;;
77798;SDS011;66989;50.426;15.352;2023-02-03T01:03:09;8.38;;;3.42;;
77798;SDS011;66989;50.426;15.352;2023-02-03T01:05:34;8.20;;;2.92;;
77798;SDS011;66989;50.426;15.352;2023-02-03T01:08:00;9.73;;;3.92;;
77798;SDS011;66989;50.426;15.352;2023-02-03T01:10:26;9.50;;;4.47;;
77798;SDS011;66989;50.426;15.352;2023-02-03T01:12:52;7.22;;;3.17;;
77798;SDS011;66989;50.426;15.352;2023-02-03T01:15:17;9.77;;;3.95;;
77798;SDS011;66989;50.426;15.352;2023-02-03T01:17:42;9.75;;;4.13;;
77798;SDS011;66989;50.426;15.352;2023-02-03T01:20:08;6.80;;;2.65;;
77798;SDS011;66989;50.426;15.352;2023-02-03T01:22:36;7.72;;;3.50;;
77798;SDS011;66989;50.426;15.352;2023-02-03T01:25:02;8.77;;;3.88;;
77798;SDS011;66989;50.426;15.352;2023-02-03T01:27:27;9.77;;;3.63;;
77798;SDS011;66989;50.426;15.352;2023-02-03T01:29:53;10.95;;;4.53;;
77798;SDS011;66989;50.426;15.352;2023-02-03T01:32:18;14.00;;;4.87;;
77798;SDS011;66989;50.426;15.352;2023-02-03T01:34:43;13.02;;;6.38;;
77798;SDS011;66989;50.426;15.352;2023-02-03T01:37:09;6.45;;;3.58;;
77798;SDS011;66989;50.426;15.352;2023-02-03T01:39:34;7.03;;;2.93;;
77798;SDS011;66989;50.426;15.352;2023-02-03T01:41:59;8.32;;;3.17;;
77798;SDS011;66989;50.426;15.352;2023-02-03T01:44:45;7.77;;;3.60;;
77798;SDS011;66989;50.426;15.352;2023-02-03T01:47:15;9.57;;;4.32;;
77798;SDS011;66989;50.426;15.352;2023-02-03T01:52:31;10.18;;;3.85;;
77798;SDS011;66989;50.426;15.352;2023-02-03T01:54:57;13.27;;;4.40;;
77798;SDS011;66989;50.426;15.352;2023-02-03T01:57:33;14.95;;;5.68;;
77798;SDS011;66989;50.426;15.352;2023-02-03T02:02:32;10.85;;;3.65;;
77798;SDS011;66989;50.426;15.352;2023-02-03T02:05:06;10.57;;;4.95;;
77798;SDS011;66989;50.426;15.352;2023-02-03T02:07:37;8.48;;;3.97;;
77798;SDS011;66989;50.426;15.352;2023-02-03T02:10:03;12.98;;;4.53;;
77798;SDS011;66989;50.426;15.352;2023-02-03T02:12:30;13.18;;;4.68;;
77798;SDS011;66989;50.426;15.352;2023-02-03T02:14:55;8.47;;;3.40;;
77798;SDS011;66989;50.426;15.352;2023-02-03T02:20:31;13.88;;;5.05;;
77798;SDS011;66989;50.426;15.352;2023-02-03T02:40:14;8.18;;;5.07;;
77798;SDS011;66989;50.426;15.352;2023-02-03T02:42:50;8.10;;;3.75;;
77798;SDS011;66989;50.426;15.352;2023-02-03T02:45:21;12.15;;;5.82;;
77798;SDS011;66989;50.426;15.352;2023-02-03T02:47:52;12.32;;;5.30;;
77798;SDS011;66989;50.426;15.352;2023-02-03T02:50:22;12.90;;;5.55;;
77798;SDS011;66989;50.426;15.352;2023-02-03T02:52:50;11.75;;;4.10;;
77798;SDS011;66989;50.426;15.352;2023-02-03T02:55:28;9.13;;;4.15;;
77798;SDS011;66989;50.426;15.352;2023-02-03T02:57:57;8.30;;;4.40;;
77798;SDS011;66989;50.426;15.352;2023-02-03T03:00:31;11.68;;;4.88;;
77798;SDS011;66989;50.426;15.352;2023-02-03T03:03:18;8.07;;;5.07;;
77798;SDS011;66989;50.426;15.352;2023-02-03T03:05:50;12.18;;;5.63;;
77798;SDS011;66989;50.426;15.352;2023-02-03T03:08:21;12.10;;;4.65;;
77798;SDS011;66989;50.426;15.352;2023-02-03T03:10:53;13.10;;;5.75;;
77798;SDS011;66989;50.426;15.352;2023-02-03T03:13:21;11.13;;;5.53;;
77798;SDS011;66989;50.426;15.352;2023-02-03T03:15:51;16.48;;;6.88;;
77798;SDS011;66989;50.426;15.352;2023-02-03T03:18:22;15.40;;;8.38;;
77798;SDS011;66989;50.426;15.352;2023-02-03T03:20:52;12.27;;;6.70;;
77798;SDS011;66989;50.426;15.352;2023-02-03T03:23:26;10.98;;;6.03;;
77798;SDS011;66989;50.426;15.352;2023-02-03T03:25:58;11.60;;;7.03;;
77798;SDS011;66989;50.426;15.352;2023-02-03T03:28:40;16.17;;;8.77;;
77798;SDS011;66989;50.426;15.352;2023-02-03T03:31:17;11.13;;;6.03;;
77798;SDS011;66989;50.426;15.352;2023-02-03T03:33:44;11.73;;;7.72;;
77798;SDS011;66989;50.426;15.352;2023-02-03T03:36:17;11.32;;;6.85;;
77798;SDS011;66989;50.426;15.352;2023-02-03T03:38:45;14.88;;;6.32;;
77798;SDS011;66989;50.426;15.352;2023-02-03T03:42:00;10.00;;;6.13;;
77798;SDS011;66989;50.426;15.352;2023-02-03T03:44:19;14.63;;;7.95;;
77798;SDS011;66989;50.426;15.352;2023-02-03T03:46:53;16.75;;;8.82;;
77798;SDS011;66989;50.426;15.352;2023-02-03T03:49:25;11.18;;;6.57;;
77798;SDS011;66989;50.426;15.352;2023-02-03T03:51:57;12.95;;;8.13;;
77798;SDS011;66989;50.426;15.352;2023-02-03T03:54:27;15.23;;;7.78;;
77798;SDS011;66989;50.426;15.352;2023-02-03T03:56:57;14.88;;;8.63;;
77798;SDS011;66989;50.426;15.352;2023-02-03T03:59:27;19.48;;;8.52;;
77798;SDS011;66989;50.426;15.352;2023-02-03T04:01:56;20.38;;;9.65;;
77798;SDS011;66989;50.426;15.352;2023-02-03T04:09:16;16.33;;;7.88;;
77798;SDS011;66989;50.426;15.352;2023-02-03T04:11:42;22.00;;;10.03;;
77798;SDS011;66989;50.426;15.352;2023-02-03T04:14:25;16.23;;;7.70;;
77798;SDS011;66989;50.426;15.352;2023-02-03T04:16:51;21.38;;;10.50;;
77798;SDS011;66989;50.426;15.352;2023-02-03T04:19:16;17.40;;;10.85;;
77798;SDS011;66989;50.426;15.352;2023-02-03T04:21:42;16.58;;;9.07;;
77798;SDS011;66989;50.426;15.352;2023-02-03T04:24:07;17.25;;;9.82;;
77798;SDS011;66989;50.426;15.352;2023-02-03T04:26:32;18.33;;;8.93;;
77798;SDS011;66989;50.426;15.352;2023-02-03T04:28:58;9.13;;;4.97;;
77798;SDS011;66989;50.426;15.352;2023-02-03T04:31:23;18.20;;;9.03;;
77798;SDS011;66989;50.426;15.352;2023-02-03T04:33:48;11.23;;;6.40;;
77798;SDS011;66989;50.426;15.352;2023-02-03T04:36:14;17.97;;;10.03;;
77798;SDS011;66989;50.426;15.352;2023-02-03T04:38:39;16.73;;;8.40;;
77798;SDS011;66989;50.426;15.352;2023-02-03T04:41:04;18.15;;;10.35;;
77798;SDS011;66989;50.426;15.352;2023-02-03T04:43:30;16.23;;;8.77;;
77798;SDS011;66989;50.426;15.352;2023-02-03T04:45:57;15.47;;;8.27;;
77798;SDS011;66989;50.426;15.352;2023-02-03T04:48:24;17.60;;;9.23;;
77798;SDS011;66989;50.426;15.352;2023-02-03T04:50:49;15.07;;;8.85;;
77798;SDS011;66989;50.426;15.352;2023-02-03T04:53:14;16.67;;;8.50;;
77798;SDS011;66989;50.426;15.352;2023-02-03T04:55:40;17.25;;;8.10;;
77798;SDS011;66989;50.426;15.352;2023-02-03T04:58:05;15.47;;;7.23;;
77798;SDS011;66989;50.426;15.352;2023-02-03T05:00:30;14.37;;;7.80;;
77798;SDS011;66989;50.426;15.352;2023-02-03T05:02:56;11.13;;;6.47;;
77798;SDS011;66989;50.426;15.352;2023-02-03T05:05:21;11.32;;;6.60;;
77798;SDS011;66989;50.426;15.352;2023-02-03T05:07:46;11.30;;;6.15;;
77798;SDS011;66989;50.426;15.352;2023-02-03T05:10:12;7.73;;;4.80;;
77798;SDS011;66989;50.426;15.352;2023-02-03T05:12:37;8.27;;;4.82;;
77798;SDS011;66989;50.426;15.352;2023-02-03T05:15:03;10.35;;;4.93;;
77798;SDS011;66989;50.426;15.352;2023-02-03T05:17:28;8.60;;;4.60;;
77798;SDS011;66989;50.426;15.352;2023-02-03T05:19:54;6.75;;;3.55;;
77798;SDS011;66989;50.426;15.352;2023-02-03T05:22:19;10.57;;;5.03;;
77798;SDS011;66989;50.426;15.352;2023-02-03T05:24:45;11.80;;;6.63;;
77798;SDS011;66989;50.426;15.352;2023-02-03T05:27:10;6.80;;;3.80;;
77798;SDS011;66989;50.426;15.352;2023-02-03T05:29:35;9.27;;;3.30;;
77798;SDS011;66989;50.426;15.352;2023-02-03T05:32:01;7.82;;;3.97;;
77798;SDS011;66989;50.426;15.352;2023-02-03T05:34:26;10.82;;;6.40;;
77798;SDS011;66989;50.426;15.352;2023-02-03T05:36:51;8.00;;;5.65;;
77798;SDS011;66989;50.426;15.352;2023-02-03T05:39:17;10.18;;;5.30;;
77798;SDS011;66989;50.426;15.352;2023-02-03T05:41:42;9.98;;;5.45;;
77798;SDS011;66989;50.426;15.352;2023-02-03T05:44:20;9.82;;;5.38;;
77798;SDS011;66989;50.426;15.352;2023-02-03T05:46:47;11.85;;;6.20;;
77798;SDS011;66989;50.426;15.352;2023-02-03T05:49:13;8.75;;;4.72;;
77798;SDS011;66989;50.426;15.352;2023-02-03T05:51:38;6.85;;;4.05;;
77798;SDS011;66989;50.426;15.352;2023-02-03T05:54:04;7.03;;;4.05;;
77798;SDS011;66989;50.426;15.352;2023-02-03T05:56:30;7.63;;;4.18;;
77798;SDS011;66989;50.426;15.352;2023-02-03T05:58:55;9.70;;;5.55;;
77798;SDS011;66989;50.426;15.352;2023-02-03T06:01:21;7.25;;;4.07;;
77798;SDS011;66989;50.426;15.352;2023-02-03T06:03:46;8.95;;;4.90;;
77798;SDS011;66989;50.426;15.352;2023-02-03T06:06:12;9.27;;;5.00;;
77798;SDS011;66989;50.426;15.352;2023-02-03T06:08:38;5.38;;;2.35;;
77798;SDS011;66989;50.426;15.352;2023-02-03T06:11:03;9.07;;;4.97;;
77798;SDS011;66989;50.426;15.352;2023-02-03T06:13:29;7.38;;;4.65;;
77798;SDS011;66989;50.426;15.352;2023-02-03T06:15:54;6.75;;;3.28;;
77798;SDS011;66989;50.426;15.352;2023-02-03T06:18:20;7.07;;;3.20;;
77798;SDS011;66989;50.426;15.352;2023-02-03T06:20:46;8.45;;;4.82;;
77798;SDS011;66989;50.426;15.352;2023-02-03T06:23:11;5.90;;;3.05;;
77798;SDS011;66989;50.426;15.352;2023-02-03T06:25:37;6.75;;;3.25;;
77798;SDS011;66989;50.426;15.352;2023-02-03T06:28:02;15.65;;;8.88;;
77798;SDS011;66989;50.426;15.352;2023-02-03T06:30:28;10.38;;;5.50;;
77798;SDS011;66989;50.426;15.352;2023-02-03T06:32:53;7.82;;;3.53;;
77798;SDS011;66989;50.426;15.352;2023-02-03T06:35:19;10.32;;;5.65;;
77798;SDS011;66989;50.426;15.352;2023-02-03T06:37:44;6.68;;;4.30;;
77798;SDS011;66989;50.426;15.352;2023-02-03T06:40:10;8.35;;;4.15;;
77798;SDS011;66989;50.426;15.352;2023-02-03T06:42:36;7.05;;;3.78;;
77798;SDS011;66989;50.426;15.352;2023-02-03T06:45:02;3.78;;;2.20;;
77798;SDS011;66989;50.426;15.352;2023-02-03T06:47:27;4.78;;;2.20;;
77798;SDS011;66989;50.426;15.352;2023-02-03T06:49:53;4.10;;;2.10;;
77798;SDS011;66989;50.426;15.352;2023-02-03T06:52:18;4.13;;;1.87;;
77798;SDS011;66989;50.426;15.352;2023-02-03T06:54:44;6.70;;;3.80;;
77798;SDS011;66989;50.426;15.352;2023-02-03T06:57:09;3.88;;;1.90;;
77798;SDS011;66989;50.426;15.352;2023-02-03T06:59:34;3.33;;;1.50;;
77798;SDS011;66989;50.426;15.352;2023-02-03T07:02:00;4.85;;;2.45;;
77798;SDS011;66989;50.426;15.352;2023-02-03T07:04:25;4.93;;;2.42;;
77798;SDS011;66989;50.426;15.352;2023-02-03T07:06:54;7.72;;;3.75;;
77798;SDS011;66989;50.426;15.352;2023-02-03T07:09:20;6.38;;;4.03;;
77798;SDS011;66989;50.426;15.352;2023-02-03T07:11:45;6.53;;;2.93;;
77798;SDS011;66989;50.426;15.352;2023-02-03T07:14:11;5.38;;;2.85;;
77798;SDS011;66989;50.426;15.352;2023-02-03T07:16:36;5.53;;;2.63;;
77798;SDS011;66989;50.426;15.352;2023-02-03T07:19:02;12.63;;;6.37;;
77798;SDS011;66989;50.426;15.352;2023-02-03T07:21:28;8.13;;;3.90;;
77798;SDS011;66989;50.426;15.352;2023-02-03T07:23:53;4.20;;;2.22;;
77798;SDS011;66989;50.426;15.352;2023-02-03T07:26:19;6.72;;;3.35;;
77798;SDS011;66989;50.426;15.352;2023-02-03T07:28:47;8.82;;;4.70;;
77798;SDS011;66989;50.426;15.352;2023-02-03T07:31:13;6.88;;;4.72;;
77798;SDS011;66989;50.426;15.352;2023-02-03T07:33:38;7.82;;;5.35;;
77798;SDS011;66989;50.426;15.352;2023-02-03T07:36:04;8.40;;;5.55;;
77798;SDS011;66989;50.426;15.352;2023-02-03T07:38:30;9.98;;;5.18;;
77798;SDS011;66989;50.426;15.352;2023-02-03T07:40:56;9.82;;;6.03;;
77798;SDS011;66989;50.426;15.352;2023-02-03T07:43:21;11.73;;;4.75;;
77798;SDS011;66989;50.426;15.352;2023-02-03T07:45:47;8.85;;;5.13;;
77798;SDS011;66989;50.426;15.352;2023-02-03T07:48:13;9.55;;;5.65;;
77798;SDS011;66989;50.426;15.352;2023-02-03T07:53:13;10.40;;;5.22;;
77798;SDS011;66989;50.426;15.352;2023-02-03T07:55:39;13.23;;;6.25;;
77798;SDS011;66989;50.426;15.352;2023-02-03T07:58:05;7.95;;;4.60;;
77798;SDS011;66989;50.426;15.352;2023-02-03T08:00:33;8.35;;;3.80;;
77798;SDS011;66989;50.426;15.352;2023-02-03T08:02:58;5.50;;;2.80;;
77798;SDS011;66989;50.426;15.352;2023-02-03T08:05:24;5.90;;;3.55;;
77798;SDS011;66989;50.426;15.352;2023-02-03T08:07:51;4.28;;;2.10;;
77798;SDS011;66989;50.426;15.352;2023-02-03T08:10:16;5.07;;;1.73;;
77798;SDS011;66989;50.426;15.352;2023-02-03T08:12:42;7.40;;;4.60;;
77798;SDS011;66989;50.426;15.352;2023-02-03T08:15:08;5.10;;;3.10;;
77798;SDS011;66989;50.426;15.352;2023-02-03T08:17:35;6.47;;;3.92;;
77798;SDS011;66989;50.426;15.352;2023-02-03T08:20:01;3.45;;;1.58;;
77798;SDS011;66989;50.426;15.352;2023-02-03T08:22:26;8.15;;;6.18;;
77798;SDS011;66989;50.426;15.352;2023-02-03T08:24:53;4.88;;;2.88;;
77798;SDS011;66989;50.426;15.352;2023-02-03T08:27:19;6.07;;;3.50;;
77798;SDS011;66989;50.426;15.352;2023-02-03T08:29:46;7.28;;;4.18;;
77798;SDS011;66989;50.426;15.352;2023-02-03T08:32:14;41.33;;;21.27;;
77798;SDS011;66989;50.426;15.352;2023-02-03T08:34:41;47.00;;;24.63;;
77798;SDS011;66989;50.426;15.352;2023-02-03T08:37:07;18.23;;;9.27;;
77798;SDS011;66989;50.426;15.352;2023-02-03T08:39:33;10.38;;;5.20;;
77798;SDS011;66989;50.426;15.352;2023-02-03T08:41:59;13.73;;;8.35;;
77798;SDS011;66989;50.426;15.352;2023-02-03T08:44:24;18.45;;;11.98;;
77798;SDS011;66989;50.426;15.352;2023-02-03T08:46:51;16.88;;;9.63;;
77798;SDS011;66989;50.426;15.352;2023-02-03T08:49:18;17.20;;;9.52;;
77798;SDS011;66989;50.426;15.352;2023-02-03T08:51:44;12.52;;;6.95;;
77798;SDS011;66989;50.426;15.352;2023-02-03T08:54:14;17.48;;;9.15;;
77798;SDS011;66989;50.426;15.352;2023-02-03T08:56:39;14.75;;;9.75;;
77798;SDS011;66989;50.426;15.352;2023-02-03T08:59:05;12.00;;;7.45;;
77798;SDS011;66989;50.426;15.352;2023-02-03T09:01:31;16.90;;;9.40;;
77798;SDS011;66989;50.426;15.352;2023-02-03T09:03:57;10.98;;;6.72;;
77798;SDS011;66989;50.426;15.352;2023-02-03T09:06:22;16.50;;;12.32;;
77798;SDS011;66989;50.426;15.352;2023-02-03T09:08:48;15.68;;;9.07;;
77798;SDS011;66989;50.426;15.352;2023-02-03T09:11:15;11.68;;;6.68;;
77798;SDS011;66989;50.426;15.352;2023-02-03T09:13:43;18.92;;;11.00;;
77798;SDS011;66989;50.426;15.352;2023-02-03T09:16:12;11.88;;;5.25;;
77798;SDS011;66989;50.426;15.352;2023-02-03T09:18:41;20.35;;;11.82;;
77798;SDS011;66989;50.426;15.352;2023-02-03T09:21:07;21.58;;;12.18;;
77798;SDS011;66989;50.426;15.352;2023-02-03T09:23:35;41.30;;;23.20;;
77798;SDS011;66989;50.426;15.352;2023-02-03T09:26:02;73.55;;;37.30;;
77798;SDS011;66989;50.426;15.352;2023-02-03T09:31:04;28.00;;;17.00;;
77798;SDS011;66989;50.426;15.352;2023-02-03T09:33:34;24.15;;;14.02;;
77798;SDS011;66989;50.426;15.352;2023-02-03T09:36:00;25.25;;;14.73;;
77798;SDS011;66989;50.426;15.352;2023-02-03T09:38:26;18.75;;;10.65;;
77798;SDS011;66989;50.426;15.352;2023-02-03T09:47:03;14.35;;;6.88;;
77798;SDS011;66989;50.426;15.352;2023-02-03T09:49:41;17.05;;;8.93;;
77798;SDS011;66989;50.426;15.352;2023-02-03T09:52:20;25.05;;;11.73;;
77798;SDS011;66989;50.426;15.352;2023-02-03T09:54:54;16.13;;;9.10;;
77798;SDS011;66989;50.426;15.352;2023-02-03T09:57:42;17.23;;;9.77;;
77798;SDS011;66989;50.426;15.352;2023-02-03T10:00:29;15.63;;;8.57;;
77798;SDS011;66989;50.426;15.352;2023-02-03T10:03:22;15.07;;;7.82;;
77798;SDS011;66989;50.426;15.352;2023-02-03T10:05:56;18.25;;;10.50;;
77798;SDS011;66989;50.426;15.352;2023-02-03T10:11:13;19.77;;;11.55;;
77798;SDS011;66989;50.426;15.352;2023-02-03T10:13:52;17.35;;;10.15;;
77798;SDS011;66989;50.426;15.352;2023-02-03T10:16:42;13.25;;;6.93;;
77798;SDS011;66989;50.426;15.352;2023-02-03T10:19:14;10.57;;;7.03;;
77798;SDS011;66989;50.426;15.352;2023-02-03T10:21:46;8.48;;;5.55;;
77798;SDS011;66989;50.426;15.352;2023-02-03T10:24:18;16.55;;;9.07;;
77798;SDS011;66989;50.426;15.352;2023-02-03T10:27:03;14.63;;;7.35;;
77798;SDS011;66989;50.426;15.352;2023-02-03T10:29:30;18.55;;;9.50;;
77798;SDS011;66989;50.426;15.352;2023-02-03T10:32:01;12.77;;;6.32;;
77798;SDS011;66989;50.426;15.352;2023-02-03T10:34:27;6.95;;;3.50;;
77798;SDS011;66989;50.426;15.352;2023-02-03T10:37:27;6.33;;;3.80;;
77798;SDS011;66989;50.426;15.352;2023-02-03T10:40:01;4.75;;;3.90;;
77798;SDS011;66989;50.426;15.352;2023-02-03T10:42:30;4.22;;;2.22;;
77798;SDS011;66989;50.426;15.352;2023-02-03T10:45:16;3.85;;;2.78;;
77798;SDS011;66989;50.426;15.352;2023-02-03T10:47:44;5.95;;;3.13;;
77798;SDS011;66989;50.426;15.352;2023-02-03T10:50:17;4.57;;;3.25;;
77798;SDS011;66989;50.426;15.352;2023-02-03T10:55:42;4.22;;;2.38;;
77798;SDS011;66989;50.426;15.352;2023-02-03T10:58:14;4.78;;;2.20;;
77798;SDS011;66989;50.426;15.352;2023-02-03T11:03:34;21.08;;;8.93;;
77798;SDS011;66989;50.426;15.352;2023-02-03T11:06:21;45.17;;;18.00;;
77798;SDS011;66989;50.426;15.352;2023-02-03T11:08:48;35.08;;;13.48;;
77798;SDS011;66989;50.426;15.352;2023-02-03T11:11:22;35.85;;;15.05;;
77798;SDS011;66989;50.426;15.352;2023-02-03T11:19:03;4.18;;;3.05;;
77798;SDS011;66989;50.426;15.352;2023-02-03T11:21:49;4.57;;;2.45;;
77798;SDS011;66989;50.426;15.352;2023-02-03T11:24:21;3.92;;;1.95;;
77798;SDS011;66989;50.426;15.352;2023-02-03T11:26:54;2.63;;;1.70;;
77798;SDS011;66989;50.426;15.352;2023-02-03T11:31:59;18.27;;;9.13;;
77798;SDS011;66989;50.426;15.352;2023-02-03T11:42:32;4.15;;;2.22;;
77798;SDS011;66989;50.426;15.352;2023-02-03T11:56:24;5.70;;;2.70;;
77798;SDS011;66989;50.426;15.352;2023-02-03T12:10:01;3.53;;;1.58;;
77798;SDS011;66989;50.426;15.352;2023-02-03T12:17:58;3.63;;;1.70;;
77798;SDS011;66989;50.426;15.352;2023-02-03T12:23:29;8.52;;;4.38;;
77798;SDS011;66989;50.426;15.352;2023-02-03T12:26:15;4.85;;;2.47;;
77798;SDS011;66989;50.426;15.352;2023-02-03T12:28:53;5.13;;;2.17;;
77798;SDS011;66989;50.426;15.352;2023-02-03T12:31:35;4.15;;;1.88;;
77798;SDS011;66989;50.426;15.352;2023-02-03T12:34:27;5.00;;;2.28;;
77798;SDS011;66989;50.426;15.352;2023-02-03T12:47:42;1.67;;;0.95;;
77798;SDS011;66989;50.426;15.352;2023-02-03T12:53:35;3.42;;;2.80;;
77798;SDS011;66989;50.426;15.352;2023-02-03T12:56:48;2.38;;;1.92;;
77798;SDS011;66989;50.426;15.352;2023-02-03T13:01:39;9.10;;;3.80;;
77798;SDS011;66989;50.426;15.352;2023-02-03T13:04:46;7.80;;;2.92;;
77798;SDS011;66989;50.426;15.352;2023-02-03T13:10:13;24.42;;;9.43;;
77798;SDS011;66989;50.426;15.352;2023-02-03T13:12:49;10.45;;;4.13;;
77798;SDS011;66989;50.426;15.352;2023-02-03T13:17:47;7.43;;;2.43;;
77798;SDS011;66989;50.426;15.352;2023-02-03T13:20:23;42.78;;;16.00;;
77798;SDS011;66989;50.426;15.352;2023-02-03T13:22:55;11.77;;;4.60;;
77798;SDS011;66989;50.426;15.352;2023-02-03T13:25:26;9.95;;;3.38;;
77798;SDS011;66989;50.426;15.352;2023-02-03T13:37:10;2.13;;;1.08;;
77798;SDS011;66989;50.426;15.352;2023-02-03T13:42:52;0.90;;;0.65;;
77798;SDS011;66989;50.426;15.352;2023-02-03T13:45:31;1.35;;;0.70;;
77798;SDS011;66989;50.426;15.352;2023-02-03T13:50:50;4.32;;;1.45;;
77798;SDS011;66989;50.426;15.352;2023-02-03T13:53:38;2.53;;;0.68;;
77798;SDS011;66989;50.426;15.352;2023-02-03T13:56:08;2.30;;;1.40;;
77798;SDS011;66989;50.426;15.352;2023-02-03T13:58:42;2.15;;;1.88;;
77798;SDS011;66989;50.426;15.352;2023-02-03T14:04:00;1.85;;;0.70;;
77798;SDS011;66989;50.426;15.352;2023-02-03T14:12:11;1.88;;;1.00;;
77798;SDS011;66989;50.426;15.352;2023-02-03T14:14:58;1.38;;;0.65;;
77798;SDS011;66989;50.426;15.352;2023-02-03T14:19:57;5.15;;;1.90;;
77798;SDS011;66989;50.426;15.352;2023-02-03T14:22:23;1.98;;;0.73;;
77798;SDS011;66989;50.426;15.352;2023-02-03T14:24:49;1.45;;;0.60;;
77798;SDS011;66989;50.426;15.352;2023-02-03T14:27:16;2.53;;;0.60;;
77798;SDS011;66989;50.426;15.352;2023-02-03T14:29:45;1.88;;;0.40;;
77798;SDS011;66989;50.426;15.352;2023-02-03T14:32:33;2.63;;;1.75;;
77798;SDS011;66989;50.426;15.352;2023-02-03T14:35:18;3.38;;;1.65;;
77798;SDS011;66989;50.426;15.352;2023-02-03T14:38:08;3.78;;;1.58;;
77798;SDS011;66989;50.426;15.352;2023-02-03T14:48:56;5.93;;;0.70;;
77798;SDS011;66989;50.426;15.352;2023-02-03T14:57:59;4.03;;;0.10;;
77798;SDS011;66989;50.426;15.352;2023-02-03T15:00:30;6.22;;;0.30;;
77798;SDS011;66989;50.426;15.352;2023-02-03T15:05:42;5.10;;;1.20;;
77798;SDS011;66989;50.426;15.352;2023-02-03T15:08:29;5.68;;;0.95;;
77798;SDS011;66989;50.426;15.352;2023-02-03T15:11:21;6.00;;;0.70;;
77798;SDS011;66989;50.426;15.352;2023-02-03T15:13:47;9.50;;;1.92;;
77798;SDS011;66989;50.426;15.352;2023-02-03T15:16:13;5.65;;;1.02;;
77798;SDS011;66989;50.426;15.352;2023-02-03T15:18:42;4.00;;;0.65;;
77798;SDS011;66989;50.426;15.352;2023-02-03T15:21:15;5.25;;;1.67;;
77798;SDS011;66989;50.426;15.352;2023-02-03T15:23:43;5.93;;;1.15;;
77798;SDS011;66989;50.426;15.352;2023-02-03T15:26:24;3.53;;;0.52;;
77798;SDS011;66989;50.426;15.352;2023-02-03T15:28:58;3.20;;;0.70;;
77798;SDS011;66989;50.426;15.352;2023-02-03T15:31:32;8.52;;;1.08;;
77798;SDS011;66989;50.426;15.352;2023-02-03T15:34:24;11.35;;;1.77;;
77798;SDS011;66989;50.426;15.352;2023-02-03T15:36:54;5.25;;;1.27;;
77798;SDS011;66989;50.426;15.352;2023-02-03T15:45:38;6.85;;;0.82;;
77798;SDS011;66989;50.426;15.352;2023-02-03T15:48:30;4.60;;;0.47;;
77798;SDS011;66989;50.426;15.352;2023-02-03T15:56:21;4.57;;;0.70;;
77798;SDS011;66989;50.426;15.352;2023-02-03T15:58:52;9.95;;;1.75;;
77798;SDS011;66989;50.426;15.352;2023-02-03T16:01:19;2.40;;;0.70;;
77798;SDS011;66989;50.426;15.352;2023-02-03T16:03:49;7.07;;;1.80;;
77798;SDS011;66989;50.426;15.352;2023-02-03T16:08:50;7.20;;;2.65;;
77798;SDS011;66989;50.426;15.352;2023-02-03T16:11:23;5.05;;;2.17;;
77798;SDS011;66989;50.426;15.352;2023-02-03T16:13:55;4.60;;;1.08;;
77798;SDS011;66989;50.426;15.352;2023-02-03T16:16:22;10.25;;;3.40;;
77798;SDS011;66989;50.426;15.352;2023-02-03T16:18:53;9.13;;;3.88;;
77798;SDS011;66989;50.426;15.352;2023-02-03T16:23:54;9.25;;;3.10;;
77798;SDS011;66989;50.426;15.352;2023-02-03T16:26:21;15.65;;;7.35;;
77798;SDS011;66989;50.426;15.352;2023-02-03T16:28:56;12.85;;;3.72;;
77798;SDS011;66989;50.426;15.352;2023-02-03T16:31:54;21.45;;;6.97;;
77798;SDS011;66989;50.426;15.352;2023-02-03T16:34:38;23.52;;;8.48;;
77798;SDS011;66989;50.426;15.352;2023-02-03T16:37:23;31.60;;;11.35;;
77798;SDS011;66989;50.426;15.352;2023-02-03T16:40:10;22.05;;;6.68;;
77798;SDS011;66989;50.426;15.352;2023-02-03T16:42:55;17.20;;;5.43;;
77798;SDS011;66989;50.426;15.352;2023-02-03T16:45:39;15.25;;;5.55;;
77798;SDS011;66989;50.426;15.352;2023-02-03T16:48:23;10.95;;;2.85;;
77798;SDS011;66989;50.426;15.352;2023-02-03T16:51:11;5.95;;;1.70;;
77798;SDS011;66989;50.426;15.352;2023-02-03T16:53:40;9.45;;;1.83;;
77798;SDS011;66989;50.426;15.352;2023-02-03T16:56:09;8.57;;;1.55;;
77798;SDS011;66989;50.426;15.352;2023-02-03T16:58:36;9.27;;;1.33;;
77798;SDS011;66989;50.426;15.352;2023-02-03T17:01:03;10.00;;;2.63;;
77798;SDS011;66989;50.426;15.352;2023-02-03T17:03:32;6.70;;;1.02;;
77798;SDS011;66989;50.426;15.352;2023-02-03T17:06:01;6.88;;;1.15;;
77798;SDS011;66989;50.426;15.352;2023-02-03T17:08:29;13.85;;;1.98;;
77798;SDS011;66989;50.426;15.352;2023-02-03T17:10:55;6.55;;;1.35;;
77798;SDS011;66989;50.426;15.352;2023-02-03T17:13:27;11.00;;;1.50;;
77798;SDS011;66989;50.426;15.352;2023-02-03T17:15:52;11.77;;;2.58;;
77798;SDS011;66989;50.426;15.352;2023-02-03T17:18:18;7.35;;;0.68;;
77798;SDS011;66989;50.426;15.352;2023-02-03T17:20:44;8.60;;;1.10;;
77798;SDS011;66989;50.426;15.352;2023-02-03T17:23:10;7.00;;;1.25;;
77798;SDS011;66989;50.426;15.352;2023-02-03T17:25:37;9.32;;;1.65;;
77798;SDS011;66989;50.426;15.352;2023-02-03T17:28:04;9.50;;;1.65;;
77798;SDS011;66989;50.426;15.352;2023-02-03T17:30:31;13.05;;;1.38;;
77798;SDS011;66989;50.426;15.352;2023-02-03T17:33:02;10.65;;;1.15;;
77798;SDS011;66989;50.426;15.352;2023-02-03T17:35:39;10.65;;;1.63;;
77798;SDS011;66989;50.426;15.352;2023-02-03T17:38:42;10.57;;;1.02;;
77798;SDS011;66989;50.426;15.352;2023-02-03T17:41:18;12.77;;;2.03;;
77798;SDS011;66989;50.426;15.352;2023-02-03T17:43:46;11.63;;;1.60;;